createdAt,value
2023-03-29T00:01:35.894Z,6.20
2023-03-29T00:04:39.112Z,5.40
2023-03-29T00:07:42.637Z,5.80
2023-03-29T00:10:48.817Z,6.00
2023-03-29T00:13:51.462Z,5.60
2023-03-29T00:16:53.992Z,5.60
2023-03-29T00:19:57.270Z,5.60
2023-03-29T00:23:00.588Z,5.40
2023-03-29T00:26:05.225Z,7.22
2023-03-29T00:29:10.100Z,5.50
2023-03-29T00:32:13.921Z,6.22
2023-03-29T00:35:20.111Z,5.68
2023-03-29T00:38:23.671Z,5.72
2023-03-29T00:41:26.784Z,6.05
2023-03-29T00:44:54.696Z,6.03
2023-03-29T00:48:05.834Z,7.22
2023-03-29T00:51:11.884Z,6.88
2023-03-29T00:54:18.852Z,10.30
2023-03-29T00:57:23.763Z,7.15
2023-03-29T01:00:35.547Z,7.57
2023-03-29T01:03:54.803Z,7.55
2023-03-29T01:07:06.427Z,6.03
2023-03-29T01:10:16.092Z,7.75
2023-03-29T01:13:27.772Z,6.70
2023-03-29T01:16:36.094Z,6.07
2023-03-29T01:19:44.442Z,7.85
2023-03-29T01:23:27.386Z,5.55
2023-03-29T01:26:54.482Z,5.95
2023-03-29T01:30:04.283Z,6.70
2023-03-29T01:33:14.686Z,6.28
2023-03-29T01:37:00.437Z,6.07
2023-03-29T01:40:05.222Z,7.38
2023-03-29T01:43:31.451Z,6.40
2023-03-29T01:46:45.602Z,7.55
2023-03-29T01:50:01.629Z,6.03
2023-03-29T01:53:11.269Z,8.32
2023-03-29T01:56:18.710Z,6.88
2023-03-29T01:59:29.026Z,9.93
2023-03-29T02:02:34.519Z,8.80
2023-03-29T02:05:42.472Z,7.00
2023-03-29T02:08:47.304Z,8.63
2023-03-29T02:11:52.484Z,6.60
2023-03-29T02:14:56.647Z,7.00
2023-03-29T02:17:59.838Z,9.45
2023-03-29T02:21:02.928Z,10.93
2023-03-29T02:24:10.828Z,7.43
2023-03-29T02:30:19.383Z,10.52
2023-03-29T02:33:42.198Z,10.03
2023-03-29T02:36:50.495Z,14.18
2023-03-29T02:39:53.969Z,11.50
2023-03-29T02:42:59.253Z,9.68
2023-03-29T02:46:03.170Z,8.98
2023-03-29T02:49:06.387Z,10.07
2023-03-29T02:52:22.763Z,10.65
2023-03-29T02:55:31.906Z,7.85
2023-03-29T02:58:36.767Z,11.32
2023-03-29T03:01:43.355Z,7.65
2023-03-29T03:04:45.690Z,6.43
2023-03-29T03:07:48.330Z,9.38
2023-03-29T03:10:51.423Z,8.85
2023-03-29T03:13:55.007Z,8.70
2023-03-29T03:17:00.703Z,10.75
2023-03-29T03:20:09.375Z,8.10
2023-03-29T03:23:12.146Z,8.57
2023-03-29T03:26:16.401Z,8.70
2023-03-29T03:29:19.731Z,14.25
2023-03-29T03:32:45.320Z,9.07
2023-03-29T03:36:12.105Z,7.90
2023-03-29T03:39:18.284Z,9.48
2023-03-29T03:42:22.142Z,9.38
2023-03-29T03:45:24.939Z,10.32
2023-03-29T03:48:33.927Z,9.20
2023-03-29T03:51:45.543Z,8.43
2023-03-29T03:54:50.809Z,10.90
2023-03-29T03:58:13.841Z,7.18
2023-03-29T04:01:17.216Z,6.47
2023-03-29T04:04:29.628Z,8.20
2023-03-29T04:07:39.036Z,6.85
2023-03-29T04:11:00.381Z,8.77
2023-03-29T04:14:12.904Z,7.45
2023-03-29T04:17:42.117Z,7.45
2023-03-29T04:21:06.837Z,6.82
2023-03-29T04:24:12.933Z,6.63
2023-03-29T04:27:19.280Z,8.00
2023-03-29T04:30:22.698Z,9.05
2023-03-29T04:34:03.847Z,10.30
2023-03-29T04:37:11.002Z,8.40
2023-03-29T04:40:15.002Z,7.38
2023-03-29T04:43:39.647Z,6.53
2023-03-29T04:46:49.960Z,9.95
2023-03-29T04:50:17.214Z,7.78
2023-03-29T04:53:21.565Z,12.32
2023-03-29T04:56:26.895Z,13.65
2023-03-29T04:59:48.314Z,19.73
2023-03-29T05:03:01.088Z,24.27
2023-03-29T05:06:10.481Z,21.20
2023-03-29T05:09:14.992Z,12.80
2023-03-29T05:12:26.179Z,11.55
2023-03-29T05:15:29.844Z,11.98
2023-03-29T05:18:32.953Z,7.78
2023-03-29T05:21:35.935Z,8.70
2023-03-29T05:24:42.703Z,7.60
2023-03-29T05:27:53.174Z,5.93
2023-03-29T05:31:05.488Z,6.25
2023-03-29T05:34:11.055Z,6.13
2023-03-29T05:37:19.342Z,5.50
2023-03-29T05:40:27.293Z,6.82
2023-03-29T05:43:59.137Z,6.90
2023-03-29T05:47:03.705Z,6.03
2023-03-29T05:50:10.362Z,7.47
2023-03-29T05:53:13.188Z,7.07
2023-03-29T05:56:17.036Z,5.35
2023-03-29T05:59:20.246Z,6.82
2023-03-29T06:02:25.350Z,5.88
2023-03-29T06:05:28.670Z,5.25
2023-03-29T06:08:37.018Z,6.23
2023-03-29T06:11:59.572Z,6.57
2023-03-29T06:15:13.356Z,5.97
2023-03-29T06:18:20.714Z,5.90
2023-03-29T06:21:24.846Z,5.50
2023-03-29T06:24:27.153Z,6.30
2023-03-29T06:27:37.957Z,6.13
2023-03-29T06:30:42.076Z,8.60
2023-03-29T06:33:45.032Z,5.75
2023-03-29T06:37:19.446Z,6.82
2023-03-29T06:40:27.467Z,6.72
2023-03-29T06:43:30.180Z,5.68
2023-03-29T06:46:42.568Z,7.43
2023-03-29T06:49:44.528Z,7.78
2023-03-29T06:53:04.645Z,7.18
2023-03-29T06:56:09.463Z,6.72
2023-03-29T06:59:16.458Z,6.93
2023-03-29T07:02:29.363Z,5.40
2023-03-29T07:05:41.346Z,8.57
2023-03-29T07:08:52.376Z,6.53
2023-03-29T07:12:07.742Z,7.57
2023-03-29T07:15:11.461Z,7.50
2023-03-29T07:18:33.984Z,6.00
2023-03-29T07:21:37.955Z,7.15
2023-03-29T07:24:41.121Z,5.50
2023-03-29T07:27:44.058Z,9.35
2023-03-29T07:30:47.061Z,4.25
2023-03-29T07:33:54.060Z,7.53
2023-03-29T07:36:57.698Z,6.22
2023-03-29T07:40:04.111Z,6.78
2023-03-29T07:43:14.672Z,5.07
2023-03-29T07:46:17.743Z,6.97
2023-03-29T07:49:22.124Z,5.63
2023-03-29T07:52:25.183Z,5.10
2023-03-29T07:55:28.097Z,5.60
2023-03-29T07:58:38.313Z,7.97
2023-03-29T08:01:44.040Z,5.43
2023-03-29T08:05:00.774Z,5.00
2023-03-29T08:08:19.280Z,5.20
2023-03-29T08:11:33.233Z,4.78
2023-03-29T08:14:39.342Z,4.95
2023-03-29T08:17:50.402Z,4.80
2023-03-29T08:20:56.021Z,11.68
2023-03-29T08:23:58.697Z,4.18
2023-03-29T08:27:08.728Z,4.55
2023-03-29T08:30:12.282Z,4.93
2023-03-29T08:33:14.993Z,6.28
2023-03-29T08:36:18.928Z,4.53
2023-03-29T08:39:23.596Z,4.18
2023-03-29T08:42:50.233Z,5.35
2023-03-29T08:46:35.328Z,4.35
2023-03-29T08:49:54.887Z,6.38
2023-03-29T08:53:08.323Z,4.68
2023-03-29T08:56:34.722Z,5.38
2023-03-29T08:59:45.695Z,4.15
2023-03-29T09:02:54.415Z,9.55
2023-03-29T09:06:06.829Z,4.10
2023-03-29T09:09:20.151Z,4.47
2023-03-29T09:12:35.825Z,4.35
2023-03-29T09:16:14.401Z,8.65
2023-03-29T09:19:36.369Z,3.80
2023-03-29T09:22:52.435Z,4.00
2023-03-29T09:26:12.430Z,4.43
2023-03-29T09:30:03.303Z,4.13
2023-03-29T09:33:31.632Z,5.85
2023-03-29T09:36:52.990Z,6.53
2023-03-29T09:39:58.340Z,4.78
2023-03-29T09:43:25.458Z,4.68
2023-03-29T09:47:00.833Z,5.43
2023-03-29T09:50:30.328Z,4.18
2023-03-29T09:53:35.494Z,3.50
2023-03-29T09:56:56.702Z,3.90
2023-03-29T10:00:06.227Z,3.70
2023-03-29T10:03:29.954Z,3.97
2023-03-29T10:06:52.837Z,3.63
2023-03-29T10:09:59.075Z,3.97
2023-03-29T10:13:06.062Z,4.25
2023-03-29T10:16:17.247Z,4.80
2023-03-29T10:19:24.163Z,3.95
2023-03-29T10:22:33.487Z,4.43
2023-03-29T10:25:43.119Z,3.70
2023-03-29T10:28:46.159Z,4.57
2023-03-29T10:31:48.813Z,3.97
2023-03-29T10:34:52.618Z,4.10
2023-03-29T10:37:58.366Z,3.67
2023-03-29T10:41:10.881Z,5.95
2023-03-29T10:44:33.229Z,4.80
2023-03-29T10:47:36.428Z,4.53
2023-03-29T10:50:39.412Z,5.93
2023-03-29T10:53:42.517Z,3.30
2023-03-29T10:57:00.528Z,3.97
2023-03-29T11:00:16.121Z,3.83
2023-03-29T11:03:41.058Z,3.80
2023-03-29T11:07:11.392Z,4.22
2023-03-29T11:11:03.990Z,3.50
2023-03-29T11:14:47.774Z,3.60
2023-03-29T11:18:03.206Z,3.67
2023-03-29T11:21:34.682Z,5.68
2023-03-29T11:25:03.602Z,4.03
2023-03-29T11:32:17.769Z,3.42
2023-03-29T11:35:56.932Z,3.97
2023-03-29T11:39:53.601Z,3.55
2023-03-29T11:47:07.852Z,3.75
2023-03-29T11:53:56.760Z,4.15
2023-03-29T11:57:08.609Z,7.05
2023-03-29T12:00:32.013Z,5.97
2023-03-29T12:03:46.729Z,4.88
2023-03-29T12:07:19.490Z,9.23
2023-03-29T12:10:27.472Z,4.80
2023-03-29T12:13:35.921Z,4.43
2023-03-29T12:16:47.799Z,4.50
2023-03-29T12:20:15.279Z,4.15
2023-03-29T12:23:21.292Z,4.22
2023-03-29T12:26:27.840Z,4.18
2023-03-29T12:29:44.069Z,4.63
2023-03-29T12:32:56.863Z,4.20
2023-03-29T12:37:02.339Z,4.25
2023-03-29T12:40:23.008Z,4.10
2023-03-29T12:43:49.684Z,4.03
2023-03-29T12:47:03.051Z,4.13
2023-03-29T12:50:15.608Z,4.55
2023-03-29T12:53:51.799Z,4.90
2023-03-29T12:57:00.513Z,3.85
2023-03-29T13:00:27.898Z,4.32
2023-03-29T13:03:43.061Z,4.15
2023-03-29T13:06:48.274Z,4.28
2023-03-29T13:09:58.622Z,4.00
2023-03-29T13:13:22.423Z,4.20
2023-03-29T13:16:34.906Z,5.88
2023-03-29T13:19:59.225Z,5.07
2023-03-29T13:23:42.920Z,4.38
2023-03-29T13:27:05.054Z,3.92
2023-03-29T13:30:20.120Z,4.50
2023-03-29T13:33:50.185Z,5.32
2023-03-29T13:37:23.265Z,5.55
2023-03-29T13:40:43.922Z,5.30
2023-03-29T13:43:46.124Z,4.85
2023-03-29T13:46:48.918Z,6.18
2023-03-29T13:49:58.304Z,4.47
2023-03-29T13:53:13.087Z,4.65
2023-03-29T13:56:57.178Z,4.95
2023-03-29T14:00:18.259Z,4.53
2023-03-29T14:03:30.109Z,8.85
2023-03-29T14:06:36.717Z,5.20
2023-03-29T14:09:44.059Z,4.88
2023-03-29T14:12:46.750Z,4.67
2023-03-29T14:15:54.815Z,6.53
2023-03-29T14:19:04.164Z,5.97
2023-03-29T14:22:14.199Z,4.57
2023-03-29T14:25:25.407Z,6.97
2023-03-29T14:28:29.027Z,10.27
2023-03-29T14:31:38.659Z,7.60
2023-03-29T14:34:41.215Z,21.38
2023-03-29T14:37:49.330Z,10.77
2023-03-29T14:43:55.601Z,5.85
2023-03-29T14:46:59.324Z,5.40
2023-03-29T14:50:03.285Z,5.97
2023-03-29T14:53:07.447Z,8.90
2023-03-29T14:56:13.433Z,8.00
2023-03-29T14:59:41.973Z,7.97
2023-03-29T15:02:55.080Z,7.55
2023-03-29T15:06:04.413Z,5.22
2023-03-29T15:09:07.191Z,6.40
2023-03-29T15:12:16.826Z,4.85
2023-03-29T15:15:20.504Z,5.70
2023-03-29T15:18:35.080Z,5.40
2023-03-29T15:21:39.463Z,6.53
2023-03-29T15:24:48.540Z,5.13
2023-03-29T15:28:00.985Z,5.38
2023-03-29T15:31:19.773Z,5.40
2023-03-29T15:34:30.968Z,4.38
2023-03-29T15:37:32.811Z,5.88
2023-03-29T15:40:36.008Z,6.82
2023-03-29T15:43:38.968Z,5.88
2023-03-29T15:46:42.463Z,6.90
2023-03-29T15:49:47.324Z,8.15
2023-03-29T15:52:50.150Z,5.68
2023-03-29T15:55:55.742Z,6.53
2023-03-29T15:58:58.688Z,6.55
2023-03-29T16:02:01.318Z,9.20
2023-03-29T16:05:03.778Z,5.45
2023-03-29T16:08:05.626Z,4.70
2023-03-29T16:11:07.650Z,5.75
2023-03-29T16:14:20.940Z,6.43
2023-03-29T16:17:23.788Z,5.88
2023-03-29T16:20:26.613Z,5.93
2023-03-29T16:23:29.568Z,5.40
2023-03-29T16:26:32.630Z,7.80
2023-03-29T16:29:35.571Z,7.43
2023-03-29T16:32:39.529Z,10.05
2023-03-29T16:35:42.097Z,8.48
2023-03-29T16:38:44.892Z,10.32
2023-03-29T16:41:48.982Z,7.82
2023-03-29T16:44:52.570Z,16.33
2023-03-29T16:47:56.191Z,13.15
2023-03-29T16:50:59.032Z,15.45
2023-03-29T16:54:01.825Z,16.88
2023-03-29T16:57:04.738Z,19.48
2023-03-29T17:00:12.039Z,18.20
2023-03-29T17:03:14.399Z,12.07
2023-03-29T17:06:16.356Z,12.68
2023-03-29T17:09:19.205Z,14.93
2023-03-29T17:12:23.352Z,14.13
2023-03-29T17:15:25.089Z,16.92
2023-03-29T17:18:28.141Z,14.98
2023-03-29T17:21:30.859Z,13.00
2023-03-29T17:24:33.666Z,12.25
2023-03-29T17:27:41.034Z,13.93
2023-03-29T17:30:46.835Z,33.15
2023-03-29T17:33:52.470Z,29.10
2023-03-29T17:36:57.861Z,38.78
2023-03-29T17:39:59.808Z,34.47
2023-03-29T17:43:01.622Z,24.10
2023-03-29T17:46:03.905Z,19.73
2023-03-29T17:49:07.347Z,16.88
2023-03-29T17:52:09.643Z,15.68
2023-03-29T17:55:14.221Z,17.45
2023-03-29T17:58:17.282Z,13.68
2023-03-29T18:01:21.537Z,12.82
2023-03-29T18:04:24.404Z,13.70
2023-03-29T18:07:30.436Z,16.42
2023-03-29T18:10:33.243Z,11.20
2023-03-29T18:13:36.278Z,13.80
2023-03-29T18:16:39.532Z,11.68
2023-03-29T18:19:44.965Z,14.02
2023-03-29T18:22:46.852Z,11.20
2023-03-29T18:25:50.018Z,11.82
2023-03-29T18:28:52.527Z,13.52
2023-03-29T18:31:57.193Z,11.20
2023-03-29T18:34:59.310Z,11.60
2023-03-29T18:38:03.854Z,9.55
2023-03-29T18:41:06.939Z,15.20
2023-03-29T18:44:11.226Z,13.00
2023-03-29T18:47:14.617Z,13.35
2023-03-29T18:50:17.537Z,14.80
2023-03-29T18:53:20.249Z,16.55
2023-03-29T18:56:22.101Z,19.92
2023-03-29T18:59:25.004Z,23.05
2023-03-29T19:02:29.706Z,24.00
2023-03-29T19:05:41.284Z,24.85
2023-03-29T19:08:45.934Z,32.67
2023-03-29T19:11:51.876Z,29.45
2023-03-29T19:14:54.878Z,35.60
2023-03-29T19:17:57.835Z,33.17
2023-03-29T19:21:00.312Z,28.52
2023-03-29T19:24:05.560Z,36.72
2023-03-29T19:27:09.247Z,28.92
2023-03-29T19:30:14.123Z,37.63
2023-03-29T19:33:17.121Z,37.45
2023-03-29T19:36:19.720Z,36.53
2023-03-29T19:39:25.302Z,34.63
2023-03-29T19:42:28.461Z,39.08
2023-03-29T19:45:32.500Z,34.63
2023-03-29T19:48:38.087Z,33.63
2023-03-29T19:51:41.991Z,33.85
2023-03-29T19:54:44.911Z,33.78
2023-03-29T19:57:47.824Z,28.00
2023-03-29T20:00:55.896Z,32.35
2023-03-29T20:07:01.051Z,29.92
2023-03-29T20:10:04.383Z,29.20
2023-03-29T20:13:06.801Z,26.85
2023-03-29T20:16:12.873Z,29.33
2023-03-29T20:19:17.941Z,30.88
2023-03-29T20:22:20.258Z,29.65
2023-03-29T20:25:23.106Z,31.42
2023-03-29T20:28:26.320Z,26.90
2023-03-29T20:31:30.119Z,25.80
2023-03-29T20:34:41.595Z,24.40
2023-03-29T20:37:44.048Z,27.77
2023-03-29T20:40:53.357Z,22.88
2023-03-29T20:44:07.049Z,24.35
2023-03-29T20:47:25.680Z,25.13
2023-03-29T20:53:34.238Z,23.67
2023-03-29T20:56:39.824Z,25.17
2023-03-29T20:59:44.336Z,29.92
2023-03-29T21:03:11.673Z,24.95
2023-03-29T22:08:22.103Z,22.90
